Time;durP1;ratioP1;P1;durP2;ratioP2;P2;SDS_P1;SDS_P2;PMS_P1;PMS_P2;Temp;Humidity;BMP_temperature;BMP_pressure;BME280_temperature;BME280_humidity;BME280_pressure;Samples;Min_cycle;Max_cycle;Signal;HPM_P1;HPM_P2
2021/04/29 00:00:22;;;;;;;23.08;10.13;;;;;;;12.86;52.36;99501.88;5048501;28;20029;-88
2021/04/29 00:02:48;;;;;;;25.80;11.65;;;;;;;12.92;51.23;99495.91;5055618;28;20056;-87
2021/04/29 00:05:20;;;;;;;23.05;10.40;;;;;;;12.78;51.69;99492.78;5042348;28;20136;-86
2021/04/29 00:07:46;;;;;;;21.83;11.02;;;;;;;12.78;52.02;99493.63;5039295;28;20116;-85
2021/04/29 00:10:18;;;;;;;25.65;12.30;;;;;;;12.68;52.70;99486.56;5044606;28;20083;-88
2021/04/29 00:12:44;;;;;;;20.75;11.07;;;;;;;12.65;52.75;99470.72;5043303;28;20021;-87
2021/04/29 00:15:11;;;;;;;24.67;11.65;;;;;;;12.68;51.82;99487.41;5043854;28;20537;-88
2021/04/29 00:17:37;;;;;;;22.92;10.35;;;;;;;12.63;52.48;99472.69;5055014;28;20025;-86
2021/04/29 00:20:08;;;;;;;28.58;11.73;;;;;;;12.57;53.36;99474.09;5053070;28;20126;-85
2021/04/29 00:22:34;;;;;;;25.65;11.02;;;;;;;12.47;54.04;99475.94;5075793;28;20047;-85
2021/04/29 00:24:59;;;;;;;28.00;9.40;;;;;;;12.42;54.54;99470.13;5057561;28;20477;-86
2021/04/29 00:27:25;;;;;;;18.42;9.27;;;;;;;12.37;55.24;99475.94;5035402;28;20033;-86
2021/04/29 00:29:50;;;;;;;20.60;10.82;;;;;;;12.35;55.49;99468.97;5036245;28;20111;-88
2021/04/29 00:32:16;;;;;;;18.65;9.88;;;;;;;12.33;55.50;99470.97;5038210;28;20289;-86
2021/04/29 00:34:41;;;;;;;20.25;10.32;;;;;;;12.29;55.60;99475.78;5031718;28;20076;-85
2021/04/29 00:37:07;;;;;;;19.08;9.35;;;;;;;12.25;56.17;99471.66;5034405;28;20041;-88
2021/04/29 00:39:32;;;;;;;20.77;9.95;;;;;;;12.18;56.74;99473.22;5056801;28;20451;-84
2021/04/29 00:41:57;;;;;;;19.20;10.80;;;;;;;12.10;57.28;99471.22;5040878;28;20473;-88
2021/04/29 00:44:23;;;;;;;18.33;11.13;;;;;;;12.03;57.44;99480.84;5040426;28;20503;-87
2021/04/29 00:46:49;;;;;;;19.45;10.38;;;;;;;12.01;57.38;99482.81;5035436;28;20112;-85
2021/04/29 00:49:16;;;;;;;17.10;10.52;;;;;;;12.01;57.50;99482.81;5052933;28;20037;-84
2021/04/29 00:51:42;;;;;;;21.35;10.23;;;;;;;11.97;57.90;99485.94;5069556;28;20025;-86
2021/04/29 00:54:07;;;;;;;20.15;10.70;;;;;;;11.83;58.73;99484.47;5035386;28;20043;-85
2021/04/29 00:56:33;;;;;;;19.58;10.32;;;;;;;11.67;59.55;99478.69;5051667;28;20096;-86
2021/04/29 00:58:58;;;;;;;26.92;10.60;;;;;;;11.59;59.59;99475.84;5036944;28;20592;-85
2021/04/29 01:01:24;;;;;;;20.98;11.18;;;;;;;11.51;59.26;99479.22;5058841;28;20028;-87
2021/04/29 01:03:54;;;;;;;21.83;10.57;;;;;;;11.36;60.43;99473.31;5040267;28;20139;-87
2021/04/29 01:06:31;;;;;;;18.75;10.27;;;;;;;11.29;60.58;99479.41;5056385;28;20036;-84
2021/04/29 01:09:02;;;;;;;21.65;11.15;;;;;;;11.29;60.85;99477.53;5036170;28;20106;-84
2021/04/29 01:11:32;;;;;;;21.40;11.80;;;;;;;11.33;60.93;99480.81;5049759;28;20124;-85
2021/04/29 01:14:03;;;;;;;19.13;11.10;;;;;;;11.33;60.74;99480.81;5028073;28;20053;-84
2021/04/29 01:16:30;;;;;;;19.58;10.70;;;;;;;11.29;60.97;99480.22;5036734;28;20119;-85
2021/04/29 01:18:57;;;;;;;23.08;11.07;;;;;;;11.23;61.07;99472.69;5051604;28;20021;-85
2021/04/29 01:21:27;;;;;;;22.98;11.57;;;;;;;11.08;61.88;99475.88;5048714;28;20128;-86
2021/04/29 01:24:06;;;;;;;23.50;11.57;;;;;;;11.00;62.44;99479.19;5051522;28;20032;-88
2021/04/29 01:26:32;;;;;;;17.08;10.27;;;;;;;11.00;62.87;99475.66;5070968;28;20164;-85
2021/04/29 01:29:20;;;;;;;21.98;10.73;;;;;;;10.93;63.57;99478.00;5037660;28;20465;-85
2021/04/29 01:31:47;;;;;;;21.58;9.88;;;;;;;10.97;64.55;99482.16;5054284;28;20344;-86
2021/04/29 01:34:15;;;;;;;14.52;8.60;;;;;;;10.97;65.07;99478.63;5037008;28;20033;-84
2021/04/29 01:36:42;;;;;;;19.30;9.77;;;;;;;11.01;66.00;99488.97;5055164;28;20116;-85
2021/04/29 01:39:10;;;;;;;17.38;8.40;;;;;;;11.04;66.38;99487.84;5043730;28;20409;-88
2021/04/29 01:41:41;;;;;;;16.95;8.95;;;;;;;11.07;67.26;99482.22;5046573;28;20033;-87
2021/04/29 01:44:09;;;;;;;15.48;8.32;;;;;;;11.12;68.17;99477.28;5042246;28;20025;-86
2021/04/29 01:46:36;;;;;;;13.25;7.57;;;;;;;11.18;68.70;99477.63;5048496;28;20028;-87
2021/04/29 01:49:03;;;;;;;20.30;8.63;;;;;;;11.19;69.01;99471.25;5043025;28;20021;-85
2021/04/29 01:51:31;;;;;;;15.88;6.88;;;;;;;11.35;70.38;99479.72;5073834;28;20024;-85
2021/04/29 01:53:57;;;;;;;12.75;7.15;;;;;;;11.30;70.54;99486.44;5054788;28;20043;-87
2021/04/29 01:56:23;;;;;;;14.05;7.50;;;;;;;11.29;70.83;99485.59;5056203;28;20033;-86
2021/04/29 01:58:50;;;;;;;15.10;8.45;;;;;;;11.33;71.41;99483.50;5065512;28;20131;-85
2021/04/29 02:01:15;;;;;;;13.52;7.50;;;;;;;11.35;71.99;99485.09;5056674;28;20397;-86
2021/04/29 02:03:41;;;;;;;14.45;7.70;;;;;;;11.47;72.30;99493.91;5054129;28;20404;-85
2021/04/29 02:06:09;;;;;;;13.30;7.50;;;;;;;11.42;72.29;99487.22;5054456;28;20041;-88
2021/04/29 02:08:41;;;;;;;17.95;7.68;;;;;;;11.62;72.97;99497.91;5048863;28;20190;-85
2021/04/29 02:11:10;;;;;;;15.27;8.30;;;;;;;11.54;73.50;99499.59;5053779;28;20497;-85
2021/04/29 02:13:38;;;;;;;18.33;8.45;;;;;;;11.65;73.90;99497.66;5068341;28;20086;-85
2021/04/29 02:16:36;;;;;;;16.52;7.95;;;;;;;11.60;73.82;99499.06;5049214;28;20036;-88
2021/04/29 02:19:03;;;;;;;15.38;8.85;;;;;;;11.71;74.24;99507.03;5021524;28;20036;-86
2021/04/29 02:21:30;;;;;;;18.20;8.55;;;;;;;11.68;74.64;99504.59;5044851;28;20066;-84
2021/04/29 02:23:58;;;;;;;14.82;8.57;;;;;;;11.76;74.38;99502.13;5058974;28;20120;-88
2021/04/29 02:26:25;;;;;;;21.27;9.80;;;;;;;11.74;74.87;99498.72;5049747;28;20047;-87
2021/04/29 02:28:52;;;;;;;20.65;10.23;;;;;;;11.64;75.50;99500.47;5038797;28;20382;-84
2021/04/29 02:31:18;;;;;;;20.30;9.73;;;;;;;11.64;75.52;99503.16;5040509;28;20033;-88
2021/04/29 02:33:44;;;;;;;18.67;9.48;;;;;;;11.69;75.78;99503.59;5042819;28;20777;-83
2021/04/29 02:36:10;;;;;;;21.38;10.25;;;;;;;11.68;75.75;99499.22;5054145;28;20032;-85
2021/04/29 02:38:37;;;;;;;20.02;10.45;;;;;;;11.66;75.92;99493.16;5060710;28;20025;-85
2021/04/29 02:41:05;;;;;;;24.40;9.90;;;;;;;11.71;75.80;99501.66;5063141;28;20031;-85
2021/04/29 02:43:31;;;;;;;22.58;10.25;;;;;;;11.70;76.00;99502.63;5056623;28;20033;-89
2021/04/29 02:45:59;;;;;;;22.80;11.35;;;;;;;11.75;76.07;99492.34;5041729;28;20028;-86
2021/04/29 02:48:26;;;;;;;21.60;10.95;;;;;;;11.71;76.08;99507.03;5055565;28;20020;-84
2021/04/29 02:50:52;;;;;;;20.08;11.27;;;;;;;11.76;76.26;99491.38;5055208;28;20029;-86
2021/04/29 02:53:19;;;;;;;24.35;12.07;;;;;;;11.84;76.01;99491.53;5066571;28;20055;-86
2021/04/29 02:55:46;;;;;;;20.85;13.23;;;;;;;11.88;75.94;99484.91;5070099;28;20166;-87
2021/04/29 02:58:16;;;;;;;26.38;12.02;;;;;;;11.78;76.08;99491.25;5049985;28;20405;-86
2021/04/29 03:00:43;;;;;;;24.00;13.07;;;;;;;11.81;75.65;99491.81;5039549;28;20032;-87
2021/04/29 03:03:09;;;;;;;25.15;13.32;;;;;;;11.83;76.03;99489.84;5055024;28;20599;-86
2021/04/29 03:05:36;;;;;;;23.50;14.13;;;;;;;11.85;75.86;99503.16;5051318;28;20037;-86
2021/04/29 03:08:02;;;;;;;26.40;13.23;;;;;;;11.89;75.77;99494.66;5056811;28;20072;-85
2021/04/29 03:10:28;;;;;;;19.83;13.02;;;;;;;11.84;75.62;99494.22;5049915;28;20051;-87
2021/04/29 03:12:54;;;;;;;24.63;13.95;;;;;;;11.91;75.74;99498.03;5050901;28;20030;-87
2021/04/29 03:15:20;;;;;;;24.35;13.43;;;;;;;11.91;75.65;99506.13;5042386;28;20090;-86
2021/04/29 03:17:46;;;;;;;28.55;13.98;;;;;;;11.85;75.77;99506.66;5045346;28;20082;-86
2021/04/29 03:20:13;;;;;;;31.92;14.52;;;;;;;11.80;76.29;99503.53;5048982;28;20510;-86
2021/04/29 03:22:41;;;;;;;28.70;14.38;;;;;;;11.88;76.31;99503.72;5029101;28;20531;-86
2021/04/29 03:25:07;;;;;;;26.13;14.23;;;;;;;11.88;76.35;99508.25;5028765;28;20157;-86
2021/04/29 03:27:32;;;;;;;26.00;13.27;;;;;;;11.78;76.89;99510.91;5040910;28;20036;-86
2021/04/29 03:29:58;;;;;;;29.20;14.50;;;;;;;11.91;76.56;99508.81;5032399;28;20033;-86
2021/04/29 03:32:24;;;;;;;33.80;15.23;;;;;;;11.94;75.96;99508.53;5040593;28;20147;-86
2021/04/29 03:34:50;;;;;;;25.90;13.30;;;;;;;11.90;75.81;99512.50;5044019;28;20478;-86
2021/04/29 03:37:15;;;;;;;25.95;14.38;;;;;;;11.89;76.28;99510.81;5047746;28;20025;-85
2021/04/29 03:39:41;;;;;;;24.80;14.52;;;;;;;11.81;74.10;99518.69;5038303;28;20066;-86
2021/04/29 03:42:07;;;;;;;30.05;14.88;;;;;;;11.81;72.52;99523.22;5035011;28;20032;-86
2021/04/29 03:44:34;;;;;;;29.65;14.43;;;;;;;11.69;72.01;99530.47;5066194;28;20474;-86
2021/04/29 03:47:00;;;;;;;29.38;13.77;;;;;;;11.69;70.47;99528.66;5047808;28;20040;-86
2021/04/29 03:49:26;;;;;;;25.33;13.75;;;;;;;11.64;68.70;99532.72;5049396;28;20044;-86
2021/04/29 03:51:51;;;;;;;25.00;13.50;;;;;;;11.60;67.86;99544.75;5032124;28;20025;-86
2021/04/29 03:54:17;;;;;;;23.30;12.38;;;;;;;11.60;65.63;99544.75;5055466;28;20044;-86
2021/04/29 03:56:42;;;;;;;29.92;12.70;;;;;;;11.55;65.14;99549.66;5047972;28;20079;-86
2021/04/29 03:59:08;;;;;;;23.00;12.73;;;;;;;11.49;65.06;99547.50;5047991;28;20057;-86
2021/04/29 04:01:33;;;;;;;26.98;12.43;;;;;;;11.48;64.66;99548.50;5047709;28;20028;-86
2021/04/29 04:03:59;;;;;;;26.88;13.48;;;;;;;11.53;63.74;99559.69;5031325;28;20040;-86
2021/04/29 04:06:25;;;;;;;22.85;12.63;;;;;;;11.47;63.81;99568.28;5048268;28;20417;-86
2021/04/29 04:08:50;;;;;;;27.10;12.93;;;;;;;11.41;63.59;99566.97;5051334;28;20047;-87
2021/04/29 04:11:16;;;;;;;25.00;12.05;;;;;;;11.45;63.31;99564.88;5030885;28;20041;-86
2021/04/29 04:13:42;;;;;;;23.40;12.85;;;;;;;11.35;63.31;99568.38;5053678;28;20516;-87
2021/04/29 04:16:07;;;;;;;27.63;12.57;;;;;;;11.30;63.84;99567.88;5048111;28;20196;-86
2021/04/29 04:18:32;;;;;;;22.23;12.20;;;;;;;11.43;63.03;99573.06;5032646;28;20033;-86
2021/04/29 04:20:58;;;;;;;23.60;12.95;;;;;;;11.26;63.72;99563.75;5065442;23;20041;-71
2021/04/29 04:23:24;;;;;;;24.50;12.60;;;;;;;11.25;64.28;99574.63;5054288;28;20036;-72
2021/04/29 04:25:49;;;;;;;26.33;12.52;;;;;;;11.28;64.80;99575.25;5046963;28;20358;-73
2021/04/29 04:28:15;;;;;;;25.48;12.55;;;;;;;11.21;65.57;99575.88;5039740;28;20033;-72
2021/04/29 04:30:40;;;;;;;29.70;13.88;;;;;;;11.30;66.02;99578.63;5043875;28;20039;-70
2021/04/29 04:33:06;;;;;;;30.00;14.68;;;;;;;11.27;67.64;99573.53;5043396;28;20029;-72
2021/04/29 04:35:31;;;;;;;29.45;15.63;;;;;;;11.28;68.30;99580.63;5041310;28;20115;-72
2021/04/29 04:37:56;;;;;;;29.30;15.30;;;;;;;11.19;70.31;99576.00;5040618;28;20048;-72
2021/04/29 04:40:22;;;;;;;26.70;14.77;;;;;;;11.24;71.66;99581.84;5059656;28;20455;-72
2021/04/29 04:42:47;;;;;;;28.10;15.68;;;;;;;11.22;72.76;99581.13;5025133;28;20515;-72
2021/04/29 04:45:13;;;;;;;29.88;16.70;;;;;;;11.07;73.53;99590.47;5040970;28;20158;-72
2021/04/29 04:47:39;;;;;;;31.55;16.48;;;;;;;11.05;74.85;99589.75;5038957;28;20037;-73
2021/04/29 04:50:06;;;;;;;32.75;16.52;;;;;;;11.02;75.25;99590.00;5023920;28;20295;-70
2021/04/29 04:52:32;;;;;;;29.17;16.27;;;;;;;11.12;75.81;99596.31;5043966;28;20117;-72
2021/04/29 04:54:58;;;;;;;27.98;16.40;;;;;;;11.16;76.09;99595.09;5038613;28;20677;-72
2021/04/29 04:57:23;;;;;;;32.47;16.40;;;;;;;11.06;76.62;99599.50;5039371;28;20033;-72
2021/04/29 04:59:48;;;;;;;29.42;15.75;;;;;;;11.08;77.23;99602.06;5044431;28;20047;-70
2021/04/29 05:02:14;;;;;;;32.50;17.23;;;;;;;11.05;77.63;99602.34;5046803;28;20063;-71
2021/04/29 05:04:40;;;;;;;33.42;19.10;;;;;;;11.14;77.47;99605.09;5046855;28;20029;-72
2021/04/29 05:07:06;;;;;;;31.73;17.85;;;;;;;11.04;77.79;99608.69;5043316;28;20779;-73
2021/04/29 05:09:33;;;;;;;30.17;16.88;;;;;;;11.07;77.78;99611.97;5063680;28;20093;-72
2021/04/29 05:11:59;;;;;;;31.00;18.58;;;;;;;11.08;77.45;99624.41;5028882;28;20021;-72
2021/04/29 05:14:25;;;;;;;39.83;18.73;;;;;;;11.02;77.72;99627.59;5050094;28;20040;-70
2021/04/29 05:16:51;;;;;;;43.88;19.35;;;;;;;11.15;76.73;99628.28;5047674;28;20040;-70
2021/04/29 05:19:16;;;;;;;33.83;18.48;;;;;;;11.12;76.66;99623.16;5047945;28;20036;-72
2021/04/29 05:21:42;;;;;;;31.63;19.23;;;;;;;11.14;76.74;99626.56;5041190;28;20036;-72
2021/04/29 05:24:08;;;;;;;30.70;18.30;;;;;;;11.25;76.47;99628.34;5024272;28;21619;-71
2021/04/29 05:26:34;;;;;;;29.30;18.05;;;;;;;11.21;75.50;99633.16;5043397;28;20029;-72
2021/04/29 05:29:00;;;;;;;33.50;19.17;;;;;;;11.16;75.85;99630.00;5044093;28;20028;-72
2021/04/29 05:31:26;;;;;;;30.10;17.77;;;;;;;11.15;75.23;99630.97;5045780;28;20458;-72
2021/04/29 05:33:51;;;;;;;39.35;18.95;;;;;;;11.08;75.34;99643.22;5045850;28;20057;-71
2021/04/29 05:36:17;;;;;;;37.85;18.92;;;;;;;11.06;74.55;99641.63;5042882;28;20140;-72
2021/04/29 05:38:42;;;;;;;34.10;19.77;;;;;;;11.06;74.07;99644.31;5047687;28;20206;-72
2021/04/29 05:41:08;;;;;;;27.05;16.92;;;;;;;11.11;73.07;99645.63;5045265;28;20460;-72
2021/04/29 05:43:33;;;;;;;38.85;18.42;;;;;;;11.10;72.06;99646.63;5049797;28;20033;-71
2021/04/29 05:45:59;;;;;;;40.97;17.88;;;;;;;11.15;72.47;99649.78;5034445;28;20078;-72
2021/04/29 05:48:24;;;;;;;31.58;17.17;;;;;;;11.34;71.30;99652.63;5048279;28;20127;-71
2021/04/29 05:50:50;;;;;;;40.83;16.88;;;;;;;11.51;69.71;99653.03;5044795;28;20033;-71
2021/04/29 05:53:15;;;;;;;31.50;16.73;;;;;;;11.64;68.91;99653.69;5044443;28;20029;-70
2021/04/29 05:55:41;;;;;;;31.95;17.33;;;;;;;11.74;67.49;99654.63;5043480;28;20550;-72
2021/04/29 05:58:06;;;;;;;31.23;16.27;;;;;;;12.01;66.14;99660.31;5039195;28;20033;-71
2021/04/29 06:00:34;;;;;;;31.63;15.82;;;;;;;12.30;64.69;99659.59;5045599;28;20033;-70
2021/04/29 06:02:59;;;;;;;29.42;16.55;;;;;;;12.55;63.63;99664.50;5048197;28;20582;-71
2021/04/29 06:05:25;;;;;;;30.77;16.60;;;;;;;12.46;63.26;99657.25;5044703;28;20123;-72
2021/04/29 06:07:58;;;;;;;29.10;16.52;;;;;;;12.54;62.66;99657.41;5045701;28;20045;-71
2021/04/29 06:10:24;;;;;;;30.85;16.20;;;;;;;12.62;61.33;99657.56;5039810;28;20025;-72
2021/04/29 06:12:49;;;;;;;24.17;15.32;;;;;;;12.75;61.62;99666.25;5045381;28;20028;-72
2021/04/29 06:15:15;;;;;;;26.67;15.05;;;;;;;12.92;61.00;99656.66;5043273;28;20036;-72
2021/04/29 06:17:41;;;;;;;34.03;16.63;;;;;;;12.86;61.03;99658.06;5044890;28;20152;-72
2021/04/29 06:20:07;;;;;;;30.73;15.82;;;;;;;12.97;59.65;99659.78;5041663;28;20136;-72
2021/04/29 06:22:33;;;;;;;26.77;15.57;;;;;;;13.12;59.88;99665.63;5046218;28;20029;-71
2021/04/29 06:24:58;;;;;;;25.30;14.93;;;;;;;13.12;59.12;99669.19;5043779;28;20355;-70
2021/04/29 06:27:23;;;;;;;35.22;15.88;;;;;;;13.13;58.87;99670.91;5044257;28;20041;-72
2021/04/29 06:29:49;;;;;;;28.63;14.40;;;;;;;12.97;58.65;99681.31;5045747;28;20021;-71
2021/04/29 06:32:14;;;;;;;27.08;14.68;;;;;;;12.80;59.48;99677.47;5048472;28;20765;-73
2021/04/29 06:34:40;;;;;;;28.63;15.20;;;;;;;12.78;59.47;99679.44;5045226;28;20032;-70
2021/04/29 06:37:05;;;;;;;28.23;14.90;;;;;;;12.82;60.15;99669.25;5044479;28;20052;-69
2021/04/29 06:39:31;;;;;;;29.02;16.13;;;;;;;12.75;60.73;99687.81;5045609;28;20090;-72
2021/04/29 06:41:57;;;;;;;23.77;15.25;;;;;;;12.66;61.08;99685.91;5040840;28;20059;-72
2021/04/29 06:44:23;;;;;;;29.38;16.27;;;;;;;12.66;60.85;99677.84;5044871;28;20032;-72
2021/04/29 06:46:48;;;;;;;33.15;17.40;;;;;;;12.60;61.60;99683.78;5044498;28;20063;-71
2021/04/29 06:49:14;;;;;;;28.65;15.70;;;;;;;12.68;62.43;99691.16;5045262;28;20127;-73
2021/04/29 06:51:39;;;;;;;32.28;17.58;;;;;;;12.79;62.61;99683.84;5045315;28;20633;-72
2021/04/29 06:54:06;;;;;;;31.92;18.52;;;;;;;12.96;61.48;99677.78;5062566;28;20398;-73
2021/04/29 06:56:32;;;;;;;29.65;16.63;;;;;;;13.21;60.46;99689.03;5044131;28;20040;-73
2021/04/29 06:58:58;;;;;;;33.35;19.25;;;;;;;13.60;59.71;99689.91;5043615;28;20094;-72
2021/04/29 07:01:24;;;;;;;34.05;19.05;;;;;;;13.85;59.52;99699.25;5044661;28;20032;-72
2021/04/29 07:03:49;;;;;;;33.33;18.70;;;;;;;14.19;58.80;99708.56;5042768;28;20056;-72
2021/04/29 07:06:15;;;;;;;32.10;19.23;;;;;;;14.32;59.09;99703.66;5044657;28;20090;-72
2021/04/29 07:08:40;;;;;;;32.63;19.13;;;;;;;14.71;58.75;99708.97;5046012;28;20073;-73
2021/04/29 07:11:05;;;;;;;35.60;21.33;;;;;;;15.20;56.73;99699.56;5046523;28;20101;-74
2021/04/29 07:13:31;;;;;;;43.40;24.58;;;;;;;14.86;58.66;99707.47;5049244;28;20032;-71
2021/04/29 07:15:56;;;;;;;46.28;25.80;;;;;;;14.86;59.58;99707.47;5046681;28;20025;-72
2021/04/29 07:18:22;;;;;;;48.15;28.23;;;;;;;14.67;61.16;99702.16;5043420;28;20025;-72
2021/04/29 07:20:47;;;;;;;56.00;31.60;;;;;;;14.74;62.02;99697.88;5042292;28;20029;-73
2021/04/29 07:23:13;;;;;;;54.90;32.85;;;;;;;15.03;61.17;99703.94;5042218;28;20392;-72
2021/04/29 07:25:38;;;;;;;61.20;34.65;;;;;;;14.96;61.83;99711.81;5045481;28;20067;-71
2021/04/29 07:28:05;;;;;;;80.13;35.00;;;;;;;15.36;59.89;99727.66;5038939;28;20040;-72
2021/04/29 07:30:32;;;;;;;69.95;36.60;;;;;;;15.33;59.55;99716.28;5045520;28;20036;-70
2021/04/29 07:32:58;;;;;;;66.40;35.10;;;;;;;15.76;57.95;99715.53;5044587;28;20036;-72
2021/04/29 07:35:24;;;;;;;64.97;35.75;;;;;;;15.39;58.94;99716.50;5047087;28;20037;-71
2021/04/29 07:37:49;;;;;;;68.43;36.22;;;;;;;15.41;59.24;99724.47;5038074;28;20044;-74
2021/04/29 07:40:16;;;;;;;68.82;36.42;;;;;;;14.88;61.02;99727.06;5046982;28;20040;-73
2021/04/29 07:42:42;;;;;;;71.68;37.03;;;;;;;14.53;62.12;99723.25;5043856;28;20035;-72
2021/04/29 07:45:09;;;;;;;70.78;36.28;;;;;;;14.74;62.33;99719.47;5040829;28;20029;-72
2021/04/29 07:47:34;;;;;;;68.20;36.85;;;;;;;14.57;62.89;99734.59;5027385;28;20021;-74
2021/04/29 07:50:00;;;;;;;63.47;36.88;;;;;;;14.52;63.11;99721.53;5022350;28;20400;-73
2021/04/29 07:52:25;;;;;;;62.63;37.22;;;;;;;14.11;63.92;99722.78;5045920;28;20118;-73
2021/04/29 07:54:50;;;;;;;61.78;36.25;;;;;;;14.62;63.29;99721.53;5054118;28;20036;-73
2021/04/29 07:57:16;;;;;;;65.00;37.72;;;;;;;15.13;60.44;99730.91;5042887;28;20036;-72
2021/04/29 07:59:41;;;;;;;57.00;34.97;;;;;;;15.73;58.90;99726.69;5059692;28;20158;-73
2021/04/29 08:02:07;;;;;;;62.03;35.72;;;;;;;16.61;55.68;99731.03;5039334;28;20082;-71
2021/04/29 08:04:33;;;;;;;57.90;33.75;;;;;;;16.40;56.28;99730.56;5042030;28;20405;-72
2021/04/29 08:06:58;;;;;;;69.35;36.85;;;;;;;16.66;55.68;99728.72;5058220;28;20036;-72
2021/04/29 08:09:24;;;;;;;95.35;36.60;;;;;;;16.16;55.67;99737.53;5038365;28;20033;-73
2021/04/29 08:11:50;;;;;;;52.78;33.55;;;;;;;16.15;55.19;99732.25;5043809;28;20108;-71
2021/04/29 08:14:16;;;;;;;61.95;34.58;;;;;;;16.46;55.23;99741.59;5043126;28;20040;-72
2021/04/29 08:16:41;;;;;;;57.45;34.38;;;;;;;16.42;54.96;99747.47;5042634;28;20045;-73
2021/04/29 08:19:07;;;;;;;55.03;33.88;;;;;;;16.18;55.17;99740.03;5055336;28;20040;-72
2021/04/29 08:21:32;;;;;;;57.25;33.63;;;;;;;16.34;55.72;99742.88;5026127;28;20032;-72
2021/04/29 08:23:58;;;;;;;51.42;31.00;;;;;;;16.81;53.33;99747.91;5042677;28;20029;-71
2021/04/29 08:26:25;;;;;;;55.25;30.45;;;;;;;16.93;52.08;99755.59;5059608;28;20021;-72
2021/04/29 08:28:50;;;;;;;51.97;30.15;;;;;;;17.10;51.13;99769.22;5053102;28;20028;-73
2021/04/29 08:31:16;;;;;;;55.70;34.25;;;;;;;16.94;52.46;99767.28;5049395;28;20578;-72
2021/04/29 08:33:41;;;;;;;54.05;29.85;;;;;;;17.10;50.49;99767.34;5044445;28;20503;-72
2021/04/29 08:36:08;;;;;;;47.20;29.42;;;;;;;16.28;52.64;99781.44;5052817;28;20706;-70
2021/04/29 08:38:34;;;;;;;53.67;31.20;;;;;;;15.89;53.79;99775.50;5048386;28;20029;-72
2021/04/29 08:40:59;;;;;;;46.90;28.13;;;;;;;16.03;53.94;99774.13;5047302;28;20033;-73
2021/04/29 08:43:25;;;;;;;51.58;29.45;;;;;;;16.47;53.17;99778.53;5051139;28;20029;-73
2021/04/29 08:45:50;;;;;;;51.05;30.23;;;;;;;16.03;52.74;99780.38;5045800;28;20482;-72
2021/04/29 08:48:21;;;;;;;48.50;28.88;;;;;;;16.25;52.67;99789.84;5042459;28;20036;-73
2021/04/29 08:50:46;;;;;;;48.17;28.15;;;;;;;16.65;51.59;99794.75;5039457;28;20028;-73
2021/04/29 08:53:12;;;;;;;52.00;30.88;;;;;;;16.93;51.02;99790.84;5045286;28;20028;-72
2021/04/29 08:55:37;;;;;;;46.65;29.10;;;;;;;17.44;49.72;99805.28;5042426;28;20503;-72
2021/04/29 08:58:06;;;;;;;49.88;27.52;;;;;;;17.95;48.02;99808.84;5041511;28;20053;-73
2021/04/29 09:00:31;;;;;;;46.40;28.60;;;;;;;17.77;48.46;99807.09;5042766;28;20421;-73
2021/04/29 09:02:58;;;;;;;48.92;28.00;;;;;;;17.62;48.70;99799.78;5047211;28;20037;-73
2021/04/29 09:05:34;;;;;;;49.40;27.92;;;;;;;17.20;48.26;99799.78;5046464;28;20139;-73
2021/04/29 09:08:02;;;;;;;43.65;28.27;;;;;;;16.90;49.58;99796.59;5037716;28;20041;-72
2021/04/29 09:10:27;;;;;;;44.63;26.70;;;;;;;16.87;49.77;99793.34;5039247;28;20041;-71
2021/04/29 09:12:53;;;;;;;41.97;25.42;;;;;;;16.83;49.34;99800.97;5041317;28;20274;-73
2021/04/29 09:15:37;;;;;;;49.70;25.42;;;;;;;16.98;49.07;99793.91;5042940;28;20459;-73
2021/04/29 09:18:09;;;;;;;41.90;25.92;;;;;;;16.90;47.95;99812.88;5040510;28;20096;-73
2021/04/29 09:20:36;;;;;;;38.55;23.63;;;;;;;17.09;47.92;99805.50;5035894;28;20025;-73
2021/04/29 09:23:07;;;;;;;39.70;23.25;;;;;;;17.12;48.13;99797.88;5036838;28;20480;-73
2021/04/29 09:25:35;;;;;;;37.08;23.95;;;;;;;17.51;47.44;99808.19;5054874;28;20423;-71
2021/04/29 09:28:01;;;;;;;36.50;22.30;;;;;;;17.69;45.48;99809.81;5043044;28;20492;-74
2021/04/29 09:30:28;;;;;;;40.83;24.30;;;;;;;17.51;45.82;99805.47;5042142;28;20116;-72
2021/04/29 09:32:59;;;;;;;39.45;21.92;;;;;;;17.95;44.09;99803.41;5041240;28;20037;-74
2021/04/29 09:35:25;;;;;;;35.08;22.00;;;;;;;18.22;45.85;99796.78;5040823;28;20037;-74
2021/04/29 09:37:51;;;;;;;36.63;22.08;;;;;;;18.58;44.02;99800.84;5061881;28;20500;-74
2021/04/29 09:40:25;;;;;;;33.30;21.63;;;;;;;18.91;43.84;99807.09;5045071;28;20071;-73
2021/04/29 09:42:52;;;;;;;39.42;21.55;;;;;;;18.61;42.23;99808.69;5047985;28;20032;-71
2021/04/29 09:45:30;;;;;;;38.50;21.42;;;;;;;17.85;42.23;99808.13;5059648;28;20041;-74
2021/04/29 09:48:20;;;;;;;32.28;20.70;;;;;;;17.90;43.71;99813.94;5061935;28;20400;-72
2021/04/29 09:50:48;;;;;;;36.50;20.98;;;;;;;18.02;42.17;99816.13;5034975;28;20029;-74
2021/04/29 09:53:14;;;;;;;37.35;22.13;;;;;;;18.19;43.47;99806.13;5038527;28;20044;-73
2021/04/29 09:55:42;;;;;;;33.78;21.00;;;;;;;18.19;43.62;99811.56;5042048;28;20040;-73
2021/04/29 09:58:10;;;;;;;30.27;19.27;;;;;;;18.16;43.10;99825.47;5044162;28;20041;-73
2021/04/29 10:00:37;;;;;;;33.00;20.70;;;;;;;17.37;43.79;99815.09;5043647;28;20032;-72
2021/04/29 10:03:03;;;;;;;35.67;19.98;;;;;;;17.25;45.72;99816.41;5045314;28;20701;-73
2021/04/29 10:05:32;;;;;;;32.03;18.85;;;;;;;16.60;45.97;99820.63;5045180;28;20039;-71
2021/04/29 10:07:57;;;;;;;30.10;19.60;;;;;;;16.64;46.41;99817.44;5046915;28;20032;-73
2021/04/29 10:10:24;;;;;;;27.52;19.17;;;;;;;16.58;47.04;99820.75;5049347;28;20500;-72
2021/04/29 10:12:51;;;;;;;26.45;16.98;;;;;;;16.47;47.07;99829.13;5029299;28;20041;-73
2021/04/29 10:15:18;;;;;;;33.20;18.13;;;;;;;16.45;47.33;99828.44;5050714;28;20341;-72
2021/04/29 10:17:45;;;;;;;28.27;16.33;;;;;;;16.63;46.31;99832.00;5047168;28;20033;-72
2021/04/29 10:20:13;;;;;;;35.63;15.65;;;;;;;16.45;46.26;99829.28;5048097;28;20048;-71
2021/04/29 10:22:39;;;;;;;26.35;16.13;;;;;;;16.91;45.91;99830.78;5029422;28;20356;-71
2021/04/29 10:25:05;;;;;;;28.33;14.57;;;;;;;17.24;47.30;99820.13;5062934;28;20397;-72
2021/04/29 10:27:30;;;;;;;21.95;12.77;;;;;;;17.08;45.15;99834.47;5050330;28;20016;-71
2021/04/29 10:30:07;;;;;;;21.77;13.82;;;;;;;16.68;45.60;99824.22;5046125;28;20423;-70
2021/04/29 10:32:35;;;;;;;17.38;11.65;;;;;;;16.28;46.10;99832.03;5039661;28;20168;-71
2021/04/29 10:35:14;;;;;;;22.65;12.43;;;;;;;15.98;45.51;99836.84;5044284;28;20665;-69
2021/04/29 10:37:40;;;;;;;18.77;11.18;;;;;;;15.54;46.39;99849.41;5045305;28;20397;-71
2021/04/29 10:40:07;;;;;;;24.55;11.43;;;;;;;15.46;47.25;99846.56;5045137;28;20064;-70
2021/04/29 10:42:44;;;;;;;18.05;10.70;;;;;;;15.15;48.37;99851.41;5044633;28;20072;-71
2021/04/29 10:45:11;;;;;;;15.18;10.38;;;;;;;15.59;48.75;99840.81;5047125;28;20033;-71
2021/04/29 10:47:38;;;;;;;19.02;11.35;;;;;;;16.00;47.25;99840.22;5052744;28;20036;-72
2021/04/29 10:50:11;;;;;;;18.75;10.10;;;;;;;16.08;46.44;99847.59;5047890;28;20038;-71
2021/04/29 10:52:59;;;;;;;18.23;10.35;;;;;;;15.67;47.98;99849.88;5043721;28;20612;-72
2021/04/29 10:55:24;;;;;;;15.85;10.10;;;;;;;15.41;50.02;99867.78;5043366;28;20043;-71
2021/04/29 10:57:50;;;;;;;19.60;10.85;;;;;;;14.97;53.37;99864.00;5043936;28;20068;-70
2021/04/29 11:00:16;;;;;;;14.20;8.85;;;;;;;14.73;52.09;99867.19;5041372;28;20094;-72
2021/04/29 11:02:41;;;;;;;18.48;8.88;;;;;;;14.70;53.06;99863.91;5043760;28;20137;-71
2021/04/29 11:05:20;;;;;;;13.73;9.13;;;;;;;14.95;52.36;99868.69;5043270;28;20518;-71
2021/04/29 11:07:46;;;;;;;13.43;7.32;;;;;;;15.54;49.99;99876.44;5042044;28;20029;-72
2021/04/29 11:10:13;;;;;;;16.42;8.25;;;;;;;15.88;48.46;99871.22;5044251;28;20504;-72
2021/04/29 11:12:45;;;;;;;11.50;7.38;;;;;;;15.69;47.93;99871.34;5049317;28;20033;-72
2021/04/29 11:15:18;;;;;;;13.27;7.68;;;;;;;15.86;49.10;99867.00;5058779;28;20049;-71
2021/04/29 11:17:43;;;;;;;19.25;7.30;;;;;;;15.63;48.20;99885.47;5042035;28;20033;-71